Tiempo atmosférico en la estación meteorológica de Castell Del Ferro, Granada (235 m.)

Fecha
DESCASC
Temp. máxima en grados centígrados (hora)
DESCASC
Temp. mínima en grados centígrados (hora)
DESCASC
Temp. media en grados centígrados
DESCASC
Racha de viento máxima en m/sg (hora)
DESCASC
Velocidad máxima media en intervalos de 10 minutos(hora)
DESCASC
Precipitaciones diarias en mm
DESCASC
Precipitaciones de 00:00 a 06:00 en mm
DESCASC
Precipitaciones de 06:00 a 12:00 en mm
DESCASC
Precipitaciones de 12:00 a 18:00 en mm
DESCASC
Precipitaciones de 18:00 a 24:00 en mm
DESCASC

Gráficas

Temp. máximas Temp. mínimas Temp. medias Precipitaciones Rachas de viento máximas Velocidades máximas media en intervalos de 10 minutos

Datos horarios

Fecha y hora oficial Temperatura (ºC) Velocidad del viento (km/h) Dirección del viento Racha (km/h) Dirección de racha Precipitación (mm) Presión (hPa) Tendencia (hPa) Humedad (%)
2017-12-16 23:00:00 9.9 3 Sudeste 10 Sudeste 0 -- -- 70
2017-12-16 22:00:00 9.9 0 Calma 4 Sudoeste 0 -- -- 75
2017-12-16 21:00:00 10.3 3 Sudoeste 5 Oeste 0 -- -- 74
2017-12-16 20:00:00 11 3 Oeste 5 Oeste 0 -- -- 71
2017-12-16 19:00:00 11 0 Calma 3 Sur 0 -- -- 73
2017-12-16 18:00:00 12 2 Sur 8 Sudeste 0 -- -- 70
2017-12-16 17:00:00 13.3 4 Sudeste 11 Sudeste 0 -- -- 62
2017-12-16 16:00:00 13.5 3 Sudeste 16 Sudeste 0 -- -- 63
2017-12-16 15:00:00 13.7 11 Sudeste 18 Sur 0 -- -- 64
2017-12-16 14:00:00 13.7 9 Sudoeste 18 Sudoeste 0 -- -- 61
2017-12-16 13:00:00 13.8 6 Sur 16 Sudeste 0 -- -- 70
2017-12-16 12:00:00 15 7 Sudeste 15 Este 0 -- -- 66
2017-12-16 11:00:00 13.4 3 Sudeste 12 Sudeste 0 -- -- 78
2017-12-16 10:00:00 12 2 Sudeste 8 Oeste 0 -- -- 83
2017-12-16 09:00:00 11.5 0 Calma 11 Este 0 -- -- 83
2017-12-16 08:00:00 11.5 6 Sudeste 21 Sudeste 0 -- -- 87
2017-12-16 07:00:00 11.9 12 Sudeste 24 Sudeste 0 -- -- 86
2017-12-16 06:00:00 12.2 5 Sur 23 Este 0 -- -- 90
2017-12-16 05:00:00 12.6 10 Sudeste 26 Este 0 -- -- 90
2017-12-16 04:00:00 13.9 9 Norte 39 Oeste 0 -- -- 83
2017-12-16 03:00:00 14.3 28 Oeste 46 Oeste 0 -- -- 88
2017-12-16 02:00:00 14.8 24 Oeste 39 Oeste 0 -- -- 85
2017-12-16 01:00:00 14.1 24 Oeste 43 Oeste 0 -- -- 93
2017-12-16 00:00:00 14.1 25 Oeste 43 Oeste 0 -- -- 93
2017-12-15 23:00:00 14.7 29 Oeste 50 Oeste 0 -- -- 87
2017-12-15 22:00:00 14.7 31 Oeste 48 Oeste 0 -- -- 86
2017-12-15 21:00:00 14.8 23 Oeste 45 Oeste 0 -- -- 86
2017-12-15 20:00:00 14.6 29 Oeste 48 Oeste 0 -- -- 89
2017-12-15 19:00:00 14.8 30 Oeste 54 Oeste 0 -- -- 86
2017-12-15 18:00:00 15 26 Oeste 49 Oeste 0 -- -- 84
2017-12-15 17:00:00 15.6 30 Oeste 57 Oeste 0 -- -- 81
2017-12-15 16:00:00 15.7 37 Oeste 66 Oeste 0 -- -- 80
2017-12-15 15:00:00 18.9 39 Oeste 87 Oeste 0 -- -- 54
2017-12-15 14:00:00 18.9 44 Oeste 73 Oeste 0 -- -- 51
2017-12-15 13:00:00 18.4 42 Oeste 74 Noroeste 0 -- -- 54
2017-12-15 12:00:00 18.2 47 Oeste 78 Oeste 0 -- -- 52
2017-12-15 11:00:00 18.1 49 Oeste 83 Noroeste 0 -- -- 49
2017-12-15 10:00:00 17.3 46 Noroeste 71 Noroeste 0 -- -- 55
2017-12-15 09:00:00 16.2 46 Oeste 69 Oeste 0 -- -- 61
2017-12-15 08:00:00 16.3 45 Oeste 74 Oeste 0 -- -- 59
2017-12-15 07:00:00 14 5 Sur 38 Noroeste 0 -- -- 64
2017-12-15 06:00:00 12.8 4 Noroeste 15 Sudeste 0 -- -- 69
2017-12-15 05:00:00 13 4 Oeste 17 Sudeste 0 -- -- 69
2017-12-15 04:00:00 13.1 6 Sur 19 Sudeste 0 -- -- 71
2017-12-15 03:00:00 13.6 12 Sudeste 22 Sudeste 0 -- -- 66
2017-12-15 02:00:00 13.5 7 Sur 37 Noroeste 0 -- -- 63
2017-12-15 01:00:00 15.6 15 Norte 36 Noroeste 0 -- -- 57
2017-12-15 00:00:00 12.6 3 Este 9 Sudeste 0 -- -- 67
2017-12-14 23:00:00 12.9 6 Sur 12 Sudeste 0 -- -- 66
2017-12-14 22:00:00 13.5 4 Sur 13 Oeste 0 -- -- 64
2017-12-14 21:00:00 13.2 5 Oeste 15 Oeste 0 -- -- 65
2017-12-14 20:00:00 13 4 Sudoeste 9 Sudeste 0 -- -- 66
2017-12-14 19:00:00 12.8 0 Calma 8 Sudoeste 0 -- -- 68
2017-12-14 18:00:00 13 0 Calma 9 Oeste 0 -- -- 69
2017-12-14 17:00:00 14.4 0 Calma 4 Sur 0 -- -- 65
2017-12-14 16:00:00 16.3 0 Calma 10 Sudeste 0 -- -- 57
2017-12-14 15:00:00 15.8 6 Sudeste 14 Sudeste 0 -- -- 58
2017-12-14 14:00:00 15.4 7 Este 14 Sudeste 0 -- -- 58
2017-12-14 13:00:00 15.5 6 Nordeste 11 Este 0 -- -- 56
2017-12-14 12:00:00 15.6 5 Este 9 Sudeste 0 -- -- 47
2017-12-14 11:00:00 15.7 0 Calma 5 Nordeste 0 -- -- 41
2017-12-14 10:00:00 13.6 0 Calma 5 Oeste 0 -- -- 50
2017-12-14 09:00:00 10.1 3 Noroeste 6 Sudoeste 0 -- -- 54
2017-12-14 08:00:00 8.9 3 Sur 8 Sur 0 -- -- 60
2017-12-14 07:00:00 9.5 2 Este 24 Sudoeste 0 -- -- 60
2017-12-14 06:00:00 9.8 4 Sudeste 18 Oeste 0 -- -- 62
2017-12-14 05:00:00 9.4 5 Sudeste 24 Oeste 0 -- -- 62
2017-12-14 04:00:00 10.1 12 Oeste 24 Oeste 0 -- -- 72
2017-12-14 03:00:00 9.8 9 Oeste 23 Oeste 0 -- -- 67
2017-12-14 02:00:00 10.2 5 Sudoeste 12 Oeste 0 -- -- 57
2017-12-14 01:00:00 11.5 4 Sudoeste 25 Sudoeste 0 -- -- 58
2017-12-14 00:00:00 9.9 3 Sudoeste 10 Sudoeste 0 -- -- 61
2017-12-13 23:00:00 9.8 3 Oeste 9 Sudoeste 0 -- -- 66
2017-12-13 22:00:00 9.2 3 Sudeste 8 Oeste 0 -- -- 76
2017-12-13 21:00:00 9.7 3 Sur 8 Oeste 0 -- -- 77
2017-12-13 20:00:00 10.3 3 Oeste 19 Oeste 0 -- -- 80
2017-12-13 19:00:00 10.9 9 Oeste 21 Oeste 0 -- -- 75
2017-12-13 18:00:00 11.3 10 Oeste 15 Sudoeste 0 -- -- 74
2017-12-13 17:00:00 12.6 9 Sudoeste 16 Oeste 0 -- -- 69
2017-12-13 16:00:00 14.7 6 Sudoeste 17 Sudeste 0 -- -- 60
2017-12-13 15:00:00 14.7 10 Sur 21 Sudeste 0 -- -- 64
2017-12-13 14:00:00 14.8 12 Sudeste 20 Sudeste 0 -- -- 63
2017-12-13 13:00:00 15 11 Sudeste 17 Sudeste 0 -- -- 63
2017-12-13 12:00:00 15 9 Sudeste 14 Sudeste 0 -- -- 59
2017-12-13 11:00:00 15.3 4 Nordeste 6 Nordeste 0 -- -- 58
2017-12-13 10:00:00 12.8 3 Noroeste 10 Oeste 0 -- -- 57
2017-12-13 09:00:00 10.7 9 Oeste 14 Oeste 0 -- -- 59
2017-12-13 08:00:00 9.7 6 Oeste 12 Oeste 0 -- -- 58
2017-12-13 07:00:00 9.2 4 Oeste 7 Oeste 0 -- -- 58
2017-12-13 06:00:00 9.1 0 Calma 6 Oeste 0 -- -- 62
2017-12-13 05:00:00 9.8 4 Oeste 9 Oeste 0 -- -- 59
2017-12-13 04:00:00 9.8 4 Oeste 10 Oeste 0 -- -- 58
2017-12-13 03:00:00 10 7 Oeste 11 Oeste 0 -- -- 56
2017-12-13 02:00:00 9.6 0 Calma 9 Oeste 0 -- -- 63
2017-12-13 01:00:00 9.8 5 Oeste 13 Oeste 0 -- -- 61
2017-12-13 00:00:00 10.3 10 Oeste 14 Oeste 0 -- -- 61
2017-12-12 23:00:00 9.9 5 Noroeste 11 Oeste 0 -- -- 69
2017-12-12 22:00:00 10.2 5 Oeste 10 Oeste 0 -- -- 60
2017-12-12 21:00:00 10.4 7 Oeste 13 Oeste 0 -- -- 62
2017-12-12 20:00:00 10.3 5 Oeste 7 Oeste 0 -- -- 61
2017-12-12 19:00:00 9.7 4 Sudoeste 8 Sudoeste 0 -- -- 62
2017-12-12 18:00:00 9.9 2 Sudoeste 6 Sudoeste 0 -- -- 64
2017-12-12 17:00:00 11.1 4 Oeste 6 Sudeste 0 -- -- 67
2017-12-12 16:00:00 14.4 3 Sur 11 Este 0 -- -- 62
2017-12-12 15:00:00 14.6 6 Sudeste 11 Este 0 -- -- 60
2017-12-12 14:00:00 14.6 3 Este 14 Este 0 -- -- 57
2017-12-12 13:00:00 13.6 13 Este 28 Sudeste 0 -- -- 61
2017-12-12 12:00:00 13.9 17 Este 27 Este 0 -- -- 63
2017-12-12 11:00:00 14 5 Este 12 Norte 0 -- -- 48
2017-12-12 10:00:00 11.4 7 Noroeste 15 Noroeste 0 -- -- 55
2017-12-12 09:00:00 9.3 9 Oeste 21 Noroeste 0 -- -- 61
2017-12-12 08:00:00 8.4 13 Oeste 20 Oeste 0 -- -- 65
2017-12-12 07:00:00 8.6 13 Oeste 19 Oeste 0 -- -- 64
2017-12-12 06:00:00 9 8 Sudoeste 12 Oeste 0 -- -- 65
2017-12-12 05:00:00 9.3 3 Sudoeste 13 Oeste 0 -- -- 63
2017-12-12 04:00:00 10.3 9 Noroeste 39 Oeste 0 -- -- 57
2017-12-12 03:00:00 10.6 27 Oeste 39 Oeste 0 -- -- 57
2017-12-12 02:00:00 10.6 24 Oeste 46 Oeste 0 -- -- 60
2017-12-12 01:00:00 11.1 25 Oeste 48 Oeste 0 -- -- 60
2017-12-12 00:00:00 11 27 Oeste 42 Noroeste 0 -- -- 59
2017-12-11 23:00:00 10.9 24 Oeste 47 Noroeste 0 -- -- 60
2017-12-11 22:00:00 10.4 26 Oeste 51 Oeste 0 -- -- 61
2017-12-11 21:00:00 10.1 27 Oeste 53 Oeste 0 -- -- 62
2017-12-11 20:00:00 10.4 32 Oeste 54 Oeste 0 -- -- 59
2017-12-11 19:00:00 10.6 35 Oeste 64 Oeste 0 -- -- 57
2017-12-11 18:00:00 11.3 42 Oeste 71 Oeste 0 -- -- 52
2017-12-11 17:00:00 11.4 34 Noroeste 66 Oeste 0 -- -- 52
2017-12-11 16:00:00 11.8 33 Oeste 57 Oeste 0 -- -- 51
2017-12-11 15:00:00 11.7 33 Oeste 67 Oeste 0 -- -- 55
2017-12-11 14:00:00 10.4 33 Oeste 61 Oeste 0 -- -- 68
2017-12-11 13:00:00 10 37 Oeste 67 Noroeste 0.6 -- -- 72
2017-12-11 12:00:00 10.2 36 Noroeste 78 Noroeste 1.4 -- -- 76
2017-12-11 11:00:00 11.3 49 Noroeste 72 Oeste 0.4 -- -- 69
2017-12-11 10:00:00 12.9 33 Noroeste 52 Oeste 0.2 -- -- 80
2017-12-11 09:00:00 14.4 13 Este 56 Noroeste 1.4 -- -- 93
2017-12-11 08:00:00 14 19 Oeste 48 Noroeste 2.2 -- -- 95
2017-12-11 07:00:00 13.7 22 Noroeste 61 Noroeste 3.4 -- -- 97
2017-12-11 06:00:00 13.7 29 Oeste 59 Oeste 0.8 -- -- 95
2017-12-11 05:00:00 13.7 29 Noroeste 63 Oeste 2.8 -- -- 95
2017-12-11 04:00:00 14 36 Noroeste 70 Oeste 2 -- -- 93
2017-12-11 03:00:00 14.2 39 Oeste 66 Oeste 1.8 -- -- 94
2017-12-11 02:00:00 14.3 26 Oeste 57 Oeste 0.6 -- -- 96
2017-12-11 01:00:00 14.2 27 Noroeste 56 Oeste 3.4 -- -- 94
2017-12-11 00:00:00 14.3 29 Oeste 52 Oeste 0 -- -- 88
2017-12-10 23:00:00 14.2 19 Oeste 40 Oeste 0 -- -- 90
2017-12-10 22:00:00 14.3 25 Oeste 50 Oeste 0 -- -- 90
2017-12-10 21:00:00 14.1 31 Oeste 56 Oeste 0 -- -- 90
2017-12-10 20:00:00 14.5 37 Oeste 61 Oeste 0 -- -- 86
2017-12-10 19:00:00 15.2 39 Oeste 81 Oeste 0 -- -- 72
2017-12-10 18:00:00 16.4 48 Noroeste 77 Noroeste 0 -- -- 53
2017-12-10 17:00:00 16.7 28 Noroeste 82 Noroeste 0 -- -- 52
2017-12-10 16:00:00 17.2 64 Noroeste 94 Noroeste 0 -- -- 48
2017-12-10 15:00:00 17.9 43 Noroeste 76 Oeste 0 -- -- 47
2017-12-10 14:00:00 18.4 32 Noroeste 68 Noroeste 0 -- -- 48
2017-12-10 13:00:00 18.1 44 Noroeste 68 Oeste 0 -- -- 48
2017-12-10 12:00:00 18.3 31 Oeste 67 Oeste 0 -- -- 51
2017-12-10 11:00:00 16.4 36 Oeste 53 Oeste 0 -- -- 59
2017-12-10 10:00:00 14.8 8 Norte 24 Noroeste 0 -- -- 66
2017-12-10 09:00:00 13 3 Sudoeste 12 Oeste 0 -- -- 77
2017-12-10 08:00:00 12.5 5 Oeste 12 Oeste 0 -- -- 74
2017-12-10 07:00:00 12.2 3 Oeste 13 Oeste 0 -- -- 76
2017-12-10 06:00:00 13 4 Noroeste 14 Oeste 0 -- -- 72
2017-12-10 05:00:00 13 4 Oeste 14 Oeste 0 -- -- 73
2017-12-10 04:00:00 12.5 4 Oeste 13 Oeste 0 -- -- 74
2017-12-10 03:00:00 13.4 8 Oeste 13 Oeste 0 -- -- 71
2017-12-10 02:00:00 14.1 6 Oeste 13 Noroeste 0 -- -- 67
2017-12-10 01:00:00 12.9 2 Noroeste 8 Oeste 0 -- -- 71
2017-12-10 00:00:00 14.9 6 Oeste 10 Sudoeste 0 -- -- 63
2017-12-09 23:00:00 14.2 9 Sudoeste 12 Sudoeste 0 -- -- 66
2017-12-09 22:00:00 15.3 10 Oeste 21 Noroeste 0 -- -- 62
2017-12-09 21:00:00 15.4 12 Noroeste 19 Oeste 0 -- -- 65
2017-12-09 20:00:00 15 10 Oeste 16 Oeste 0 -- -- 67
2017-12-09 19:00:00 14.7 8 Oeste 11 Oeste 0 -- -- 67
2017-12-09 18:00:00 14.6 3 Sudoeste 6 Oeste 0 -- -- 65
2017-12-09 17:00:00 15.6 4 Oeste 7 Sudeste 0 -- -- 71
2017-12-09 16:00:00 17.2 4 Este 15 Sudeste 0 -- -- 62
2017-12-09 15:00:00 18 9 Sudeste 14 Sudeste 0 -- -- 61
2017-12-09 14:00:00 19 5 Sudeste 12 Sudeste 0 -- -- 57
2017-12-09 13:00:00 19.2 0 Calma 11 Sudeste 0 -- -- 57
2017-12-09 12:00:00 17.6 9 Noroeste 15 Noroeste 0 -- -- 53
2017-12-09 11:00:00 16.6 0 Calma 11 Oeste 0 -- -- 63
2017-12-09 10:00:00 15.5 5 Oeste 9 Oeste 0 -- -- 48
2017-12-09 09:00:00 15.2 5 Oeste 8 Oeste 0 -- -- 45
2017-12-09 08:00:00 14 3 Sudoeste 8 Oeste 0 -- -- 47
2017-12-09 07:00:00 12.6 3 Oeste 9 Sudoeste 0 -- -- 64
2017-12-09 06:00:00 12.2 2 Sur 10 Sur 0 -- -- 63
2017-12-09 05:00:00 12.9 4 Oeste 8 Oeste 0 -- -- 51
2017-12-09 04:00:00 13.8 2 Sudoeste 13 Oeste 0 -- -- 49
2017-12-09 03:00:00 12.2 0 Calma 8 Oeste 0 -- -- 59
2017-12-09 02:00:00 12.2 4 Sudeste 7 Noroeste 0 -- -- 64
2017-12-09 01:00:00 11.8 3 Sur 10 Sur 0 -- -- 78
2017-12-09 00:00:00 11.3 4 Sur 8 Sudeste 0 -- -- 67
2017-12-08 23:00:00 11.7 0 Calma 9 Sudeste 0 -- -- 71
2017-12-08 22:00:00 12.2 6 Oeste 14 Oeste 0 -- -- 76
2017-12-08 21:00:00 11.3 0 Calma 4 Sudeste 0 -- -- 87
2017-12-08 20:00:00 11.6 2 Oeste 8 Sur 0 -- -- 86
2017-12-08 19:00:00 12 7 Sur 12 Sudeste 0 -- -- 86
2017-12-08 18:00:00 12.8 4 Sudeste 9 Sur 0 -- -- 82
2017-12-08 17:00:00 13.6 0 Calma 5 Sur 0 -- -- 79
2017-12-08 16:00:00 16.4 3 Nordeste 11 Nordeste 0 -- -- 67
2017-12-08 15:00:00 16.7 7 Sudeste 12 Sur 0 -- -- 66
2017-12-08 14:00:00 17 3 Este 10 Este 0 -- -- 60
2017-12-08 13:00:00 15.8 5 Nordeste 12 Este 0 -- -- 65
2017-12-08 12:00:00 14.7 3 Nordeste 9 Este 0 -- -- 63
2017-12-08 11:00:00 14.6 2 Sudeste 5 Este 0 -- -- 64
2017-12-08 10:00:00 12.9 0 Calma 2 Nordeste 0 -- -- 73
2017-12-08 09:00:00 9.6 0 Calma 5 Sur 0 -- -- 85
2017-12-08 08:00:00 8.2 0 Calma 6 Sudoeste 0 -- -- 86
2017-12-08 07:00:00 8.6 4 Oeste 6 Oeste 0 -- -- 88
2017-12-08 06:00:00 8.3 0 Calma 4 Sudoeste 0 -- -- 87
2017-12-08 05:00:00 8.7 3 Sudoeste 8 Sudoeste 0 -- -- 86
2017-12-08 04:00:00 8.7 0 Calma 4 Sudoeste 0 -- -- 88
2017-12-08 03:00:00 9 0 Calma 4 Sudoeste 0 -- -- 86
2017-12-08 02:00:00 9 0 Calma 12 Oeste 0 -- -- 88
2017-12-08 01:00:00 9.3 2 Sudoeste 8 Sudoeste 0 -- -- 89
2017-12-08 00:00:00 9.8 4 Oeste 6 Sudoeste 0 -- -- 87
2017-12-07 23:00:00 9.9 2 Oeste 6 Sudoeste 0 -- -- 87
2017-12-07 22:00:00 10 3 Oeste 8 Oeste 0 -- -- 86
2017-12-07 21:00:00 9.6 2 Oeste 4 Sudoeste 0 -- -- 89
2017-12-07 20:00:00 10 2 Sudoeste 9 Oeste 0 -- -- 87
2017-12-07 19:00:00 10.3 9 Sudoeste 10 Sudoeste 0 -- -- 87
2017-12-07 18:00:00 10.5 4 Sur 6 Sur 0 -- -- 85
2017-12-07 17:00:00 11.7 4 Sudeste 9 Sudeste 0 -- -- 81
2017-12-07 16:00:00 13.7 5 Sudeste 13 Sudeste 0 -- -- 73
2017-12-07 15:00:00 14.1 8 Sudeste 15 Sudeste 0 -- -- 72
2017-12-07 14:00:00 13.9 8 Sudeste 14 Este 0 -- -- 70
2017-12-07 13:00:00 15.1 8 Sudeste 14 Sudeste 0 -- -- 64
2017-12-07 12:00:00 15 8 Este 13 Sudeste 0 -- -- 64
2017-12-07 11:00:00 15.3 4 Este 9 Este 0 -- -- 62
2017-12-07 10:00:00 13.3 0 Calma 7 Noroeste 0 -- -- 73
2017-12-07 09:00:00 10.7 3 Oeste 11 Noroeste 0 -- -- 76
2017-12-07 08:00:00 9.9 3 Oeste 8 Noroeste 0 -- -- 80
2017-12-07 07:00:00 10 5 Oeste 9 Oeste 0 -- -- 78
2017-12-07 06:00:00 10.2 4 Oeste 13 Oeste 0 -- -- 77
2017-12-07 05:00:00 10.3 8 Oeste 14 Oeste 0 -- -- 78
2017-12-07 04:00:00 10.2 6 Oeste 11 Oeste 0 -- -- 79
2017-12-07 03:00:00 10.3 3 Oeste 8 Noroeste 0 -- -- 79
2017-12-07 02:00:00 10.1 2 Oeste 8 Oeste 0 -- -- 80
2017-12-07 01:00:00 10 0 Calma 6 Oeste 0 -- -- 80
2017-12-07 00:00:00 10.2 3 Noroeste 8 Oeste 0 -- -- 79
2017-12-06 23:00:00 10.6 3 Oeste 6 Oeste 0 -- -- 79
2017-12-06 22:00:00 11.4 5 Oeste 10 Oeste 0 -- -- 78
2017-12-06 21:00:00 12.2 0 Calma 6 Este 0 -- -- 80
2017-12-06 20:00:00 12.5 6 Este 15 Sudeste 0 -- -- 81
2017-12-06 19:00:00 12.5 7 Este 14 Sudeste 0 -- -- 80
2017-12-06 18:00:00 12.7 12 Este 18 Este 0 -- -- 76
2017-12-06 17:00:00 13.1 13 Este 18 Sudeste 0 -- -- 73
2017-12-06 16:00:00 13.9 10 Sudeste 21 Sudeste 0 -- -- 69
2017-12-06 15:00:00 14.7 11 Este 19 Sudeste 0 -- -- 67
2017-12-06 14:00:00 15.1 10 Este 21 Sudeste 0 -- -- 65
2017-12-06 13:00:00 14.7 14 Este 21 Este 0 -- -- 66
2017-12-06 12:00:00 14.6 14 Este 23 Este 0 -- -- 65
2017-12-06 11:00:00 14.3 16 Este 23 Este 0 -- -- 65
2017-12-06 10:00:00 13.6 7 Este 12 Nordeste 0 -- -- 65
2017-12-06 09:00:00 10.9 2 Noroeste 9 Norte 0 -- -- 71
2017-12-06 08:00:00 9.5 3 Noroeste 7 Norte 0 -- -- 75
2017-12-06 07:00:00 9.5 0 Calma 6 Sudoeste 0 -- -- 74
2017-12-06 06:00:00 9.5 3 Noroeste 8 Norte 0 -- -- 75
2017-12-06 05:00:00 9.6 3 Oeste 8 Noroeste 0 -- -- 72
2017-12-06 04:00:00 9.1 3 Oeste 6 Norte 0 -- -- 73
2017-12-06 03:00:00 9.5 4 Sur 12 Noroeste 0 -- -- 75
2017-12-06 02:00:00 9.4 4 Oeste 7 Noroeste 0 -- -- 78
2017-12-06 01:00:00 9.1 0 Calma 6 Sudoeste 0 -- -- 80
2017-12-06 00:00:00 9.4 0 Calma 7 Oeste 0 -- -- 79
2017-12-05 23:00:00 9.5 2 Sudeste 10 Este 0 -- -- 80
2017-12-05 22:00:00 10.5 2 Norte 14 Este 0 -- -- 78
2017-12-05 21:00:00 10.9 7 Este 15 Este 0 -- -- 79
2017-12-05 20:00:00 11.1 8 Este 25 Sudeste 0 -- -- 79
2017-12-05 19:00:00 12.3 17 Este 27 Este 0 -- -- 77
2017-12-05 18:00:00 12.3 16 Este 25 Este 0 -- -- 77
2017-12-05 17:00:00 12.6 15 Este 26 Este 0 -- -- 76
2017-12-05 16:00:00 13.3 16 Este 30 Sudeste 0 -- -- 72
2017-12-05 15:00:00 13.9 20 Este 29 Este 0 -- -- 65
2017-12-05 14:00:00 14.5 19 Este 28 Este 0 -- -- 61
2017-12-05 13:00:00 14.4 21 Este 31 Este 0 -- -- 61
2017-12-05 12:00:00 14.1 22 Este 33 Este 0 -- -- 60
2017-12-05 11:00:00 13.7 19 Este 27 Este 0 -- -- 59
2017-12-05 10:00:00 12.8 8 Este 15 Este 0 -- -- 56
2017-12-05 09:00:00 9.9 3 Norte 12 Norte 0 -- -- 60
2017-12-05 08:00:00 8.2 0 Calma 6 Nordeste 0 -- -- 67
2017-12-05 07:00:00 8.3 2 Noroeste 9 Nordeste 0 -- -- 67
2017-12-05 06:00:00 8.2 2 Sudeste 7 Norte 0 -- -- 66
2017-12-05 05:00:00 8.6 0 Calma 10 Este 0 -- -- 63
2017-12-05 04:00:00 8.7 3 Este 13 Este 0 -- -- 64
2017-12-05 03:00:00 9.3 5 Este 15 Sudeste 0 -- -- 58
2017-12-05 02:00:00 9.1 5 Este 17 Este 0 -- -- 63
2017-12-05 01:00:00 8.8 5 Este 12 Este 0 -- -- 68
2017-12-05 00:00:00 8.4 0 Calma 4 Sur 0 -- -- 74
2017-12-04 23:00:00 8.4 2 Oeste 5 Nordeste 0 -- -- 75
2017-12-04 22:00:00 8.9 0 Calma 15 Este 0 -- -- 73
2017-12-04 21:00:00 9.1 4 Este 22 Este 0 -- -- 74
2017-12-04 20:00:00 10 12 Este 22 Este 0 -- -- 72
2017-12-04 19:00:00 10.5 15 Este 30 Este 0 -- -- 69
2017-12-04 18:00:00 10.9 17 Este 27 Este 0 -- -- 70
2017-12-04 17:00:00 11.1 17 Este 28 Este 0 -- -- 68
2017-12-04 16:00:00 11.9 19 Este 28 Sudeste 0 -- -- 65
2017-12-04 15:00:00 12.8 19 Este 27 Este 0 -- -- 59
2017-12-04 14:00:00 12.9 20 Este 31 Este 0 -- -- 50
2017-12-04 13:00:00 12.8 20 Este 28 Este 0 -- -- 60
2017-12-04 12:00:00 12.7 20 Este 27 Este 0 -- -- 53
2017-12-04 11:00:00 12.7 14 Este 20 Este 0 -- -- 53
2017-12-04 10:00:00 12 7 Este 10 Sudeste 0 -- -- 49
2017-12-04 09:00:00 8.8 0 Calma 8 Noroeste 0 -- -- 64
2017-12-04 08:00:00 7.3 2 Nordeste 9 Sudoeste 0 -- -- 68
2017-12-04 07:00:00 7.8 3 Oeste 7 Oeste 0 -- -- 69
2017-12-04 06:00:00 7.5 0 Calma 9 Noroeste 0 -- -- 64
2017-12-04 05:00:00 7.3 4 Oeste 6 Oeste 0 -- -- 73
2017-12-04 04:00:00 7.5 0 Calma 4 Sudoeste 0 -- -- 73
2017-12-04 03:00:00 7.3 0 Calma 3 Sudoeste 0 -- -- 74
2017-12-04 02:00:00 7.3 0 Calma 4 Sudoeste 0 -- -- 73
2017-12-04 01:00:00 7.4 0 Calma 3 Sudoeste 0 -- -- 72
2017-12-04 00:00:00 7.8 2 Oeste 11 Oeste 0 -- -- 69
2017-12-03 23:00:00 8 2 Noroeste 13 Noroeste 0 -- -- 68
2017-12-03 22:00:00 8.6 4 Oeste 11 Oeste 0 -- -- 65
2017-12-03 21:00:00 8.5 7 Oeste 11 Oeste 0 -- -- 65
2017-12-03 20:00:00 8.6 5 Oeste 8 Noroeste 0 -- -- 65
2017-12-03 19:00:00 8.2 2 Oeste 4 Sudoeste 0 -- -- 68
2017-12-03 18:00:00 8.8 3 Sur 11 Sudeste 0 -- -- 66
2017-12-03 17:00:00 10.1 4 Sudeste 14 Sudeste 0 -- -- 62
2017-12-03 16:00:00 11.6 6 Sudeste 15 Este 0 -- -- 54
2017-12-03 15:00:00 12.1 9 Sudeste 17 Este 0 -- -- 57
2017-12-03 14:00:00 12.5 11 Sudeste 23 Sudeste 0 -- -- 57
2017-12-03 13:00:00 13.1 15 Sudeste 26 Sudeste 0 -- -- 54
2017-12-03 12:00:00 12.9 17 Sudeste 27 Sudeste 0 -- -- 53
2017-12-03 11:00:00 12.8 8 Sudeste 15 Noroeste 0 -- -- 51
2017-12-03 10:00:00 10.9 9 Noroeste 21 Noroeste 0 -- -- 48
2017-12-03 09:00:00 9 11 Oeste 21 Oeste 0 -- -- 53
2017-12-03 08:00:00 8.6 7 Oeste 19 Oeste 0 -- -- 56
2017-12-03 07:00:00 8.4 10 Oeste 22 Oeste 0 -- -- 58
2017-12-03 06:00:00 8.3 3 Oeste 15 Oeste 0 -- -- 65
2017-12-03 05:00:00 9.1 11 Oeste 17 Oeste 0 -- -- 56
2017-12-03 04:00:00 8.8 10 Oeste 12 Oeste 0 -- -- 60
2017-12-03 03:00:00 8.8 4 Oeste 13 Oeste 0 -- -- 63
2017-12-03 02:00:00 9.2 8 Sudoeste 17 Oeste 0 -- -- 63
2017-12-03 01:00:00 9.2 10 Oeste 18 Oeste 0 -- -- 55
2017-12-03 00:00:00 9.5 10 Oeste 16 Oeste 0 -- -- 59
2017-12-02 23:00:00 9.6 8 Oeste 14 Oeste 0 -- -- 64
2017-12-02 22:00:00 9.6 9 Oeste 14 Oeste 0 -- -- 66
2017-12-02 21:00:00 9.4 8 Oeste 15 Oeste 0 -- -- 64
2017-12-02 20:00:00 9.4 6 Oeste 10 Oeste 0 -- -- 64
2017-12-02 19:00:00 9.2 2 Oeste 6 Oeste 0 -- -- 70
2017-12-02 18:00:00 9.7 3 Oeste 6 Oeste 0 -- -- 68
2017-12-02 17:00:00 10.9 3 Oeste 5 Oeste 0 -- -- 63
2017-12-02 16:00:00 11.9 0 Calma 4 Oeste 0 -- -- 58
2017-12-02 15:00:00 13 3 Este 20 Sudeste 0 -- -- 53
2017-12-02 14:00:00 12 3 Nordeste 10 Sudeste 0 -- -- 57
2017-12-02 13:00:00 11.8 3 Sur 13 Este 0 -- -- 55
2017-12-02 12:00:00 12.1 6 Sudeste 16 Este 0 -- -- 53
2017-12-02 11:00:00 11 3 Sudoeste 8 Oeste 0 -- -- 62
2017-12-02 10:00:00 10.7 4 Oeste 9 Oeste 0 -- -- 60
2017-12-02 09:00:00 10.4 5 Oeste 17 Sudeste 0 -- -- 62
2017-12-02 08:00:00 10.5 7 Sudoeste 21 Sur 0 -- -- 63
2017-12-02 07:00:00 9.9 5 Sudoeste 15 Oeste 0 -- -- 65
2017-12-02 06:00:00 9.8 6 Noroeste 14 Noroeste 0 -- -- 62
2017-12-02 05:00:00 9.8 4 Oeste 13 Oeste 0 -- -- 59
2017-12-02 04:00:00 10.1 7 Oeste 12 Oeste 0 -- -- 56
2017-12-02 03:00:00 10 4 Oeste 11 Oeste 0 -- -- 58
2017-12-02 02:00:00 9.7 3 Oeste 5 Oeste 0 -- -- 60
2017-12-02 01:00:00 10.2 3 Oeste 15 Oeste 0 -- -- 54
2017-12-02 00:00:00 10 13 Oeste 19 Oeste 0 -- -- 50
2017-12-01 23:00:00 10.3 5 Noroeste 19 Oeste 0 -- -- 47
2017-12-01 22:00:00 11 14 Oeste 26 Oeste 0 -- -- 44
2017-12-01 21:00:00 10.5 12 Oeste 26 Oeste 0 -- -- 44
2017-12-01 20:00:00 10.8 19 Oeste 56 Noroeste 0 -- -- 46
2017-12-01 19:00:00 11.6 32 Noroeste 55 Noroeste 0 -- -- 42
2017-12-01 18:00:00 11.8 23 Noroeste 66 Oeste 0 -- -- 43
2017-12-01 17:00:00 12.3 26 Noroeste 56 Noroeste 0 -- -- 38
2017-12-01 16:00:00 12.9 23 Oeste 51 Sudoeste 0 -- -- 37
2017-12-01 15:00:00 13.8 31 Oeste 54 Oeste 0 -- -- 31
2017-12-01 14:00:00 13.9 30 Noroeste 47 Oeste 0 -- -- 30
2017-12-01 13:00:00 13 14 Oeste 30 Oeste 0 -- -- 56
2017-12-01 12:00:00 12.3 15 Sudoeste 28 Oeste 0 -- -- 51
2017-12-01 11:00:00 11.6 16 Oeste 28 Oeste 0 -- -- 53
2017-12-01 10:00:00 11.9 0 Calma 17 Noroeste 0 -- -- 67
2017-12-01 09:00:00 9.1 9 Oeste 17 Oeste 0 -- -- 63
2017-12-01 08:00:00 8.3 10 Oeste 17 Noroeste 0 -- -- 68
2017-12-01 07:00:00 8.7 11 Oeste 19 Oeste 0 -- -- 67
2017-12-01 06:00:00 8.6 8 Oeste 15 Oeste 0 -- -- 69
2017-12-01 05:00:00 8.9 8 Oeste 19 Oeste 0 -- -- 70
2017-12-01 04:00:00 8.9 10 Oeste 15 Oeste 0 -- -- 71
2017-12-01 03:00:00 8.8 13 Oeste 18 Oeste 0 -- -- 70
2017-12-01 02:00:00 8.5 9 Oeste 17 Oeste 0 -- -- 79
2017-12-01 01:00:00 8 10 Oeste 16 Oeste 0 -- -- 86
2017-12-01 00:00:00 8 10 Oeste 18 Oeste 0 -- -- 91
2017-11-30 23:00:00 7.7 8 Oeste 10 Oeste 0 -- -- 92
2017-11-30 22:00:00 9.2 6 Sudoeste 9 Sudoeste 0 -- -- 98
2017-11-30 21:00:00 9.4 0 Calma 3 Sudoeste 0 -- -- 99
2017-11-30 20:00:00 9.4 0 Calma 13 Este 0.2 -- -- 99
2017-11-30 19:00:00 9.3 7 Este 33 Este 2.6 -- -- 99
2017-11-30 18:00:00 10.2 6 Nordeste 22 Este 3.4 -- -- 98
2017-11-30 17:00:00 10.3 2 Sur 17 Sudeste 6.4 -- -- 97
2017-11-30 16:00:00 10.6 9 Sur 14 Sudeste 1.8 -- -- 96
2017-11-30 15:00:00 11.1 0 Calma 3 Este 1.6 -- -- 96
2017-11-30 14:00:00 11.3 0 Calma 10 Oeste 4 -- -- 97
2017-11-30 13:00:00 11.5 8 Sudeste 26 Sudeste 3 -- -- 97
2017-11-30 12:00:00 12.7 13 Este 27 Este 0 -- -- 91
2017-11-30 11:00:00 13.3 12 Sudeste 22 Sudeste 0 -- -- 89
2017-11-30 10:00:00 13.5 13 Este 19 Este 0 -- -- 86
2017-11-30 09:00:00 13.2 5 Este 16 Sudeste 0 -- -- 90
2017-11-30 08:00:00 13.1 0 Calma 10 Sudeste 0 -- -- 87
2017-11-30 07:00:00 13.1 3 Sudeste 12 Sudeste 0 -- -- 86
2017-11-30 06:00:00 13.2 0 Calma 9 Sudeste 0 -- -- 89
2017-11-30 05:00:00 13.2 3 Sudeste 11 Sudeste 0 -- -- 88
2017-11-30 04:00:00 13.4 6 Sudeste 18 Sudeste 0 -- -- 87
2017-11-30 03:00:00 13.5 12 Sudeste 21 Sudeste 0 -- -- 88
2017-11-30 02:00:00 13.5 12 Sudeste 24 Sudeste 0 -- -- 92
2017-11-30 01:00:00 14 12 Sudeste 24 Sudeste 0 -- -- 93
2017-11-30 00:00:00 14.6 12 Este 25 Sudeste 0 -- -- 90
2017-11-29 23:00:00 16.1 17 Oeste 41 Oeste 0 -- -- 51
2017-11-29 22:00:00 15.6 28 Oeste 42 Oeste 0 -- -- 63
2017-11-29 21:00:00 14.9 25 Oeste 38 Noroeste 0 -- -- 81
2017-11-29 20:00:00 15.1 29 Oeste 44 Oeste 0 -- -- 99
2017-11-29 19:00:00 15.3 21 Oeste 38 Oeste 3.2 -- -- 98
2017-11-29 18:00:00 15.1 21 Oeste 39 Oeste 14 -- -- 99
2017-11-29 17:00:00 15.5 19 Oeste 41 Oeste 0 -- -- 99
2017-11-29 16:00:00 15.4 17 Oeste 35 Oeste 2.2 -- -- 98
2017-11-29 15:00:00 15.3 16 Oeste 32 Oeste 2 -- -- 97
2017-11-29 14:00:00 15.4 19 Noroeste 37 Oeste 4.8 -- -- 98
2017-11-29 13:00:00 15.2 15 Oeste 33 Oeste 2.6 -- -- 97
2017-11-29 12:00:00 14.5 11 Oeste 28 Noroeste 9.6 -- -- 97
2017-11-29 11:00:00 14.4 15 Noroeste 30 Noroeste 4.2 -- -- 93
2017-11-29 10:00:00 14.4 17 Oeste 29 Oeste 0.4 -- -- 91
2017-11-29 09:00:00 14.8 13 Noroeste 46 Oeste 6.6 -- -- 90
2017-11-29 08:00:00 14.8 26 Oeste 44 Oeste 7.6 -- -- 92
2017-11-29 07:00:00 15.8 19 Noroeste 37 Oeste 0.2 -- -- 85
2017-11-29 06:00:00 16.4 16 Noroeste 47 Oeste 0 -- -- 80
2017-11-29 05:00:00 16.6 20 Noroeste 38 Oeste 0 -- -- 78
2017-11-29 04:00:00 17.2 16 Noroeste 37 Oeste 0 -- -- 73
2017-11-29 03:00:00 16.9 22 Noroeste 38 Oeste 0 -- -- 72
2017-11-29 02:00:00 16.4 18 Noroeste 32 Oeste 0 -- -- 67
2017-11-29 01:00:00 17 13 Oeste 39 Noroeste 0 -- -- 62
2017-11-29 00:00:00 16.9 17 Noroeste 28 Noroeste 0 -- -- 60
2017-11-28 23:00:00 15.7 5 Oeste 20 Oeste 0 -- -- 67
2017-11-28 22:00:00 15.9 5 Oeste 17 Oeste 0 -- -- 66
2017-11-28 21:00:00 16.3 12 Oeste 17 Oeste 0 -- -- 64
2017-11-28 20:00:00 14.2 2 Noroeste 6 Oeste 0 -- -- 74
2017-11-28 19:00:00 13.9 3 Sur 8 Sudoeste 0 -- -- 74
2017-11-28 18:00:00 14.5 5 Sudeste 10 Este 0 -- -- 71
2017-11-28 17:00:00 15.3 3 Nordeste 12 Sudeste 0 -- -- 68
2017-11-28 16:00:00 15.5 8 Sudeste 11 Sudeste 0 -- -- 68
2017-11-28 15:00:00 16.6 5 Nordeste 10 Nordeste 0 -- -- 64
2017-11-28 14:00:00 17 6 Sudeste 18 Sur 0 -- -- 64
2017-11-28 13:00:00 17.1 3 Sudeste 16 Sudeste 0 -- -- 65
2017-11-28 12:00:00 16.3 4 Nordeste 13 Sudoeste 0 -- -- 64
2017-11-28 11:00:00 15.3 2 Noroeste 8 Noroeste 0 -- -- 69
2017-11-28 10:00:00 14.4 2 Nordeste 13 Sudoeste 0 -- -- 66
2017-11-28 09:00:00 13.3 3 Oeste 8 Oeste 0 -- -- 69
2017-11-28 08:00:00 12.4 5 Oeste 8 Sudoeste 0 -- -- 72
2017-11-28 07:00:00 12.6 4 Sudoeste 7 Sudoeste 0 -- -- 72
2017-11-28 06:00:00 12.5 3 Sudoeste 9 Sudoeste 0 -- -- 67
2017-11-28 05:00:00 13 7 Sudoeste 13 Oeste 0 -- -- 63
2017-11-28 04:00:00 13.2 11 Oeste 13 Oeste 0 -- -- 67
2017-11-28 03:00:00 13.3 10 Oeste 14 Sudoeste 0 -- -- 70
2017-11-28 02:00:00 13.5 9 Oeste 12 Oeste 0 -- -- 71
2017-11-28 01:00:00 13.1 8 Sudoeste 10 Sudoeste 0 -- -- 73
2017-11-28 00:00:00 13 2 Sudoeste 6 Sudoeste 0 -- -- 74
2017-11-27 23:00:00 13.4 3 Oeste 6 Oeste 0 -- -- 68
2017-11-27 22:00:00 14.1 5 Oeste 6 Oeste 0 -- -- 72
2017-11-27 21:00:00 13.1 0 Calma 5 Sudoeste 0 -- -- 77
2017-11-27 20:00:00 14.1 0 Calma 5 Sudeste 0 -- -- 76
2017-11-27 19:00:00 14.2 3 Sur 6 Sudoeste 0 -- -- 74
2017-11-27 18:00:00 14.6 3 Sur 7 Este 0 -- -- 71
2017-11-27 17:00:00 15.5 2 Nordeste 10 Este 0 -- -- 73
2017-11-27 16:00:00 15.9 6 Este 13 Sudeste 0 -- -- 75
2017-11-27 15:00:00 16.5 9 Este 17 Sudeste 0 -- -- 76
2017-11-27 14:00:00 17.1 11 Este 19 Este 0 -- -- 74
2017-11-27 13:00:00 16.3 11 Este 21 Sudeste 0 -- -- 78
2017-11-27 12:00:00 16.5 14 Este 22 Este 0 -- -- 79
2017-11-27 11:00:00 16.7 15 Este 22 Sudeste 0 -- -- 76
2017-11-27 10:00:00 16.6 11 Este 19 Este 0 -- -- 77
2017-11-27 09:00:00 14.9 6 Este 18 Este 0 -- -- 82
2017-11-27 08:00:00 14.7 8 Este 13 Este 0 -- -- 78
2017-11-27 07:00:00 14.5 0 Calma 8 Sudeste 0 -- -- 77
2017-11-27 06:00:00 14.1 3 Este 13 Nordeste 0 -- -- 78
2017-11-27 05:00:00 14.2 3 Nordeste 13 Nordeste 0 -- -- 79
2017-11-27 04:00:00 13.9 2 Este 5 Noroeste 0 -- -- 79
2017-11-27 03:00:00 14.2 0 Calma 8 Oeste 0 -- -- 80
2017-11-27 02:00:00 14 4 Oeste 8 Sur 0 -- -- 80
2017-11-27 01:00:00 13.5 0 Calma 8 Sur 0 -- -- 84
2017-11-27 00:00:00 13.8 3 Sudeste 15 Sudeste 0 -- -- 83
2017-11-26 23:00:00 13.6 0 Calma 11 Sudeste 0 -- -- 86
2017-11-26 22:00:00 14.3 5 Sudeste 16 Sudeste 0 -- -- 83
2017-11-26 21:00:00 14.7 9 Sudeste 17 Este 0 -- -- 83
2017-11-26 20:00:00 14.9 6 Sudeste 18 Sudeste 0 -- -- 89
2017-11-26 19:00:00 15.1 13 Sudeste 25 Este 0 -- -- 87
2017-11-26 18:00:00 15.3 15 Este 25 Este 0 -- -- 87
2017-11-26 17:00:00 16 15 Este 22 Sudeste 0 -- -- 85
2017-11-26 16:00:00 17.2 13 Este 20 Este 0 -- -- 80
2017-11-26 15:00:00 17.5 14 Este 27 Este 0 -- -- 77
2017-11-26 14:00:00 17.7 17 Este 28 Este 0 -- -- 76
2017-11-26 13:00:00 18 14 Este 25 Sudeste 0 -- -- 78
2017-11-26 12:00:00 18.8 13 Sudeste 20 Sudeste 0 -- -- 65
2017-11-26 11:00:00 17.6 10 Sudeste 27 Sudeste 0 -- -- 70
2017-11-26 10:00:00 17.6 14 Sudeste 22 Sudeste 0 -- -- 64
2017-11-26 09:00:00 17.3 4 Este 15 Este 0 -- -- 49
2017-11-26 08:00:00 17.5 10 Este 23 Este 0 -- -- 47
2017-11-26 07:00:00 18.1 5 Sudeste 19 Sudeste 0 -- -- 46
2017-11-26 06:00:00 17.7 10 Sudeste 17 Sur 0 -- -- 46
2017-11-26 05:00:00 16.5 4 Sudoeste 13 Sur 0 -- -- 55
2017-11-26 04:00:00 16.8 8 Sur 15 Sur 0 -- -- 50
2017-11-26 03:00:00 16.9 2 Norte 8 Sudeste 0 -- -- 55
2017-11-26 02:00:00 17.7 3 Oeste 18 Sudeste 0 -- -- 50
2017-11-26 01:00:00 17.7 12 Sur 40 Oeste 0 -- -- 57
2017-11-26 00:00:00 21.2 28 Oeste 43 Oeste 0 -- -- 34
2017-11-25 23:00:00 21.1 27 Oeste 44 Oeste 0 -- -- 31
2017-11-25 22:00:00 21.8 28 Noroeste 45 Noroeste 0 -- -- 29
2017-11-25 21:00:00 22.3 23 Noroeste 46 Noroeste 0 -- -- 28
2017-11-25 20:00:00 22.1 24 Noroeste 39 Noroeste 0 -- -- 29
2017-11-25 19:00:00 22.3 22 Oeste 36 Oeste 0 -- -- 30
2017-11-25 18:00:00 21.9 23 Noroeste 36 Oeste 0 -- -- 26
2017-11-25 17:00:00 22.3 21 Oeste 34 Oeste 0 -- -- 23
2017-11-25 16:00:00 23 18 Oeste 31 Oeste 0 -- -- 25
2017-11-25 15:00:00 23.3 18 Oeste 33 Oeste 0 -- -- 25
2017-11-25 14:00:00 22.5 9 Noroeste 27 Oeste 0 -- -- 41
2017-11-25 13:00:00 21.1 4 Sudeste 11 Este 0 -- -- 47
2017-11-25 12:00:00 21 4 Este 6 Sudeste 0 -- -- 51
2017-11-25 11:00:00 20 0 Calma 4 Este 0 -- -- 43
2017-11-25 10:00:00 18.5 0 Calma 2 Oeste 0 -- -- 45
2017-11-25 09:00:00 15.3 0 Calma 3 Noroeste 0 -- -- 47
2017-11-25 08:00:00 14.7 3 Sudeste 8 Oeste 0 -- -- 47
2017-11-25 07:00:00 14.9 6 Oeste 10 Oeste 0 -- -- 45
2017-11-25 06:00:00 14.9 3 Sudoeste 7 Sudoeste 0 -- -- 44
2017-11-25 05:00:00 15.2 3 Sur 8 Sudoeste 0 -- -- 45
2017-11-25 04:00:00 14.9 0 Calma 4 Este 0 -- -- 44
2017-11-25 03:00:00 16.1 0 Calma 6 Noroeste 0 -- -- 40
2017-11-25 02:00:00 16 0 Calma 8 Sudoeste 0 -- -- 42
2017-11-25 01:00:00 16.1 2 Oeste 5 Oeste 0 -- -- 44
2017-11-25 00:00:00 15.8 0 Calma 5 Oeste 0 -- -- 46
2017-11-24 23:00:00 16.2 5 Oeste 10 Oeste 0 -- -- 47
2017-11-24 22:00:00 15.3 3 Sudoeste 5 Sudoeste 0 -- -- 46
2017-11-24 21:00:00 15.1 2 Este 6 Sur 0 -- -- 55
2017-11-24 20:00:00 14.9 0 Calma 5 Oeste 0 -- -- 55
2017-11-24 19:00:00 14.2 0 Calma 5 Oeste 0 -- -- 68
2017-11-24 18:00:00 15.2 0 Calma 4 Noroeste 0 -- -- 79
2017-11-24 17:00:00 16.1 2 Oeste 7 Sur 0 -- -- 81
2017-11-24 16:00:00 20.1 3 Sudeste 7 Sudeste 0 -- -- 69
2017-11-24 15:00:00 19.4 6 Sudeste 14 Sudeste 0 -- -- 69
2017-11-24 14:00:00 19.5 8 Sudeste 13 Este 0 -- -- 65
2017-11-24 13:00:00 20.9 5 Sudeste 9 Este 0 -- -- 48
2017-11-24 12:00:00 21.1 6 Sudeste 8 Este 0 -- -- 54
2017-11-24 11:00:00 21.1 2 Sudeste 6 Nordeste 0 -- -- 50
2017-11-24 10:00:00 20.2 2 Este 5 Este 0 -- -- 39
2017-11-24 09:00:00 16.6 2 Oeste 6 Oeste 0 -- -- 43
2017-11-24 08:00:00 14.1 4 Oeste 8 Oeste 0 -- -- 49
2017-11-24 07:00:00 13.8 2 Sudeste 4 Sudeste 0 -- -- 49
2017-11-24 06:00:00 13.7 2 Sudeste 4 Sudeste 0 -- -- 49
2017-11-24 05:00:00 15.1 3 Sudeste 6 Sudeste 0 -- -- 43
2017-11-24 04:00:00 15.7 5 Oeste 8 Oeste 0 -- -- 42
2017-11-24 03:00:00 15.7 0 Calma 7 Oeste 0 -- -- 43
2017-11-24 02:00:00 14.4 0 Calma 3 Sudoeste 0 -- -- 51
2017-11-24 01:00:00 15.2 0 Calma 4 Oeste 0 -- -- 46
2017-11-24 00:00:00 15.2 0 Calma 5 Sudeste 0 -- -- 46
2017-11-23 23:00:00 16.4 2 Oeste 6 Noroeste 0 -- -- 41
2017-11-23 22:00:00 15.5 0 Calma 8 Oeste 0 -- -- 46
2017-11-23 21:00:00 14.5 2 Oeste 5 Sudeste 0 -- -- 50
2017-11-23 20:00:00 13.9 4 Oeste 6 Oeste 0 -- -- 55
2017-11-23 19:00:00 13.8 0 Calma 3 Oeste 0 -- -- 80
2017-11-23 18:00:00 14.6 0 Calma 4 Sudeste 0 -- -- 80
2017-11-23 17:00:00 16.2 0 Calma 3 Nordeste 0 -- -- 73
2017-11-23 16:00:00 18.9 3 Este 10 Sudeste 0 -- -- 61
2017-11-23 15:00:00 18.9 7 Sudeste 9 Sudeste 0 -- -- 63
2017-11-23 14:00:00 19.2 4 Este 10 Este 0 -- -- 64
2017-11-23 13:00:00 18.4 5 Este 10 Este 0 -- -- 66
2017-11-23 12:00:00 18.8 4 Este 7 Este 0 -- -- 63
2017-11-23 11:00:00 18.7 3 Este 6 Este 0 -- -- 64
2017-11-23 10:00:00 17.5 0 Calma 4 Noroeste 0 -- -- 53
2017-11-23 09:00:00 13.5 0 Calma 4 Sudoeste 0 -- -- 67
2017-11-23 08:00:00 11.5 2 Sudeste 8 Oeste 0 -- -- 69
2017-11-23 07:00:00 11.3 4 Oeste 6 Oeste 0 -- -- 71
2017-11-23 06:00:00 11.1 0 Calma 4 Sudeste 0 -- -- 75
2017-11-23 05:00:00 11.1 0 Calma 4 Sur 0 -- -- 75
2017-11-23 04:00:00 11.5 0 Calma 5 Sur 0 -- -- 74
2017-11-23 03:00:00 12.3 3 Oeste 8 Oeste 0 -- -- 75
2017-11-23 02:00:00 12 5 Oeste 8 Oeste 0 -- -- 75
2017-11-23 01:00:00 11.9 3 Sur 5 Sudoeste 0 -- -- 77
2017-11-23 00:00:00 11.9 0 Calma 5 Sudoeste 0 -- -- 74
2017-11-22 23:00:00 11.8 0 Calma 7 Sudoeste 0 -- -- 83
2017-11-22 22:00:00 12.1 0 Calma 5 Sudoeste 0 -- -- 84
2017-11-22 21:00:00 11.9 2 Sur 6 Sudoeste 0 -- -- 78
2017-11-22 20:00:00 12.4 0 Calma 6 Sur 0 -- -- 82
2017-11-22 19:00:00 12.8 4 Oeste 5 Oeste 0 -- -- 83
2017-11-22 18:00:00 13.3 0 Calma 5 Oeste 0 -- -- 84
2017-11-22 17:00:00 14.7 3 Noroeste 5 Noroeste 0 -- -- 79
2017-11-22 16:00:00 18 3 Noroeste 11 Sudeste 0 -- -- 71
2017-11-22 15:00:00 18 8 Este 17 Sudeste 0 -- -- 73
2017-11-22 14:00:00 18.2 9 Sudeste 16 Nordeste 0 -- -- 70
2017-11-22 13:00:00 18.4 11 Sudeste 20 Sudeste 0 -- -- 70
2017-11-22 12:00:00 18.4 8 Sudeste 15 Sudeste 0 -- -- 64
2017-11-22 11:00:00 17.9 7 Este 12 Este 0 -- -- 62
2017-11-22 10:00:00 17.4 0 Calma 4 Este 0 -- -- 42
2017-11-22 09:00:00 13.3 0 Calma 8 Sur 0 -- -- 50
2017-11-22 08:00:00 12.4 0 Calma 3 Noroeste 0 -- -- 43
2017-11-22 07:00:00 13.4 0 Calma 6 Noroeste 0 -- -- 39
2017-11-22 06:00:00 13.9 5 Noroeste 8 Oeste 0 -- -- 39
2017-11-22 05:00:00 12.7 4 Sur 7 Sudeste 0 -- -- 45
2017-11-22 04:00:00 13.6 2 Oeste 6 Sur 0 -- -- 49
2017-11-22 03:00:00 13.9 4 Oeste 7 Noroeste 0 -- -- 47
2017-11-22 02:00:00 13 2 Sur 4 Sudeste 0 -- -- 53
2017-11-22 01:00:00 13.9 2 Oeste 5 Oeste 0 -- -- 51
2017-11-22 00:00:00 13.4 0 Calma 5 Sur 0 -- -- 50
2017-11-21 23:00:00 14.7 0 Calma 6 Oeste 0 -- -- 49
2017-11-21 22:00:00 13.6 0 Calma 5 Sur 0 -- -- 55
2017-11-21 21:00:00 13.5 2 Sur 5 Sur 0 -- -- 62
2017-11-21 20:00:00 14.3 0 Calma 4 Sudoeste 0 -- -- 58
2017-11-21 19:00:00 14.9 2 Oeste 7 Oeste 0 -- -- 63
2017-11-21 18:00:00 14.7 2 Oeste 7 Oeste 0 -- -- 65
2017-11-21 17:00:00 15 0 Calma 6 Sudeste 0 -- -- 74
2017-11-21 16:00:00 19.2 3 Sudeste 12 Sudeste 0 -- -- 58
2017-11-21 15:00:00 18.7 8 Sudeste 14 Este 0 -- -- 54
2017-11-21 14:00:00 19.3 6 Este 14 Este 0 -- -- 48
2017-11-21 13:00:00 18.9 9 Este 14 Este 0 -- -- 54
2017-11-21 12:00:00 19.5 7 Este 17 Este 0 -- -- 52
2017-11-21 11:00:00 19.9 7 Este 14 Este 0 -- -- 50
2017-11-21 10:00:00 18.9 0 Calma 4 Este 0 -- -- 39
2017-11-21 09:00:00 16.7 3 Sudeste 7 Sudeste 0 -- -- 40
2017-11-21 08:00:00 13.9 0 Calma 4 Sudoeste 0 -- -- 40
2017-11-21 07:00:00 13.7 0 Calma 4 Sudoeste 0 -- -- 40
2017-11-21 06:00:00 14.2 3 Oeste 4 Oeste 0 -- -- 39
2017-11-21 05:00:00 13.4 4 Noroeste 7 Noroeste 0 -- -- 42
2017-11-21 04:00:00 14 2 Sur 12 Oeste 0 -- -- 39
2017-11-21 03:00:00 12.6 3 Sudoeste 8 Sur 0 -- -- 72
2017-11-21 02:00:00 13 0 Calma 6 Sur 0 -- -- 49
2017-11-21 01:00:00 13.6 4 Sur 9 Sudeste 0 -- -- 47
2017-11-21 00:00:00 15 2 Sur 4 Oeste 0 -- -- 42
2017-11-20 23:00:00 15.4 2 Oeste 4 Oeste 0 -- -- 37
2017-11-20 22:00:00 15.1 2 Oeste 6 Noroeste 0 -- -- 43
2017-11-20 21:00:00 14.1 0 Calma 3 Sur 0 -- -- 47
2017-11-20 20:00:00 14.5 0 Calma 5 Oeste 0 -- -- 45
2017-11-20 19:00:00 14.3 4 Oeste 6 Oeste 0 -- -- 51
2017-11-20 18:00:00 14.3 0 Calma 4 Sur 0 -- -- 62
2017-11-20 17:00:00 14.9 2 Sur 7 Sur 0 -- -- 48
2017-11-20 16:00:00 20.1 5 Sudeste 9 Sudeste 0 -- -- 39
2017-11-20 15:00:00 19.3 6 Sudeste 13 Sudeste 0 -- -- 45
2017-11-20 14:00:00 18.8 8 Sudeste 14 Sudeste 0 -- -- 55
2017-11-20 13:00:00 18.2 9 Sudeste 17 Sudeste 0 -- -- 53
2017-11-20 12:00:00 18.6 9 Sudeste 14 Sudeste 0 -- -- 51
2017-11-20 11:00:00 19 8 Sudeste 12 Sudeste 0 -- -- 50
2017-11-20 10:00:00 18.5 0 Calma 9 Sudeste 0 -- -- 56
2017-11-20 09:00:00 15.2 0 Calma 4 Sudeste 0 -- -- 52
2017-11-20 08:00:00 13.6 0 Calma 5 Noroeste 0 -- -- 47
2017-11-20 07:00:00 13.9 3 Oeste 6 Oeste 0 -- -- 45
2017-11-20 06:00:00 13.3 0 Calma 4 Sur 0 -- -- 52
2017-11-20 05:00:00 12.8 2 Noroeste 6 Oeste 0 -- -- 62
2017-11-20 04:00:00 12.5 3 Sudoeste 8 Sur 0 -- -- 87
2017-11-20 03:00:00 12.6 6 Sur 8 Sur 0 -- -- 86
2017-11-20 02:00:00 12.7 2 Oeste 5 Sur 0 -- -- 85
2017-11-20 01:00:00 12.9 0 Calma 6 Sudeste 0 -- -- 91
2017-11-20 00:00:00 13 3 Oeste 6 Oeste 0 -- -- 92
2017-11-19 23:00:00 13.1 0 Calma 6 Oeste 0 -- -- 91
2017-11-19 22:00:00 13.4 2 Oeste 4 Oeste 0 -- -- 94
2017-11-19 21:00:00 13.3 0 Calma 5 Oeste 0 -- -- 92
2017-11-19 20:00:00 14 0 Calma 4 Noroeste 0 -- -- 93
2017-11-19 19:00:00 13.9 0 Calma 5 Sudeste 0 -- -- 93
2017-11-19 18:00:00 15.1 2 Sur 7 Este 0 -- -- 85
2017-11-19 17:00:00 15.9 4 Este 12 Sudeste 0 -- -- 84
2017-11-19 16:00:00 17.5 6 Sudeste 13 Sudeste 0 -- -- 76
2017-11-19 15:00:00 17.9 8 Sudeste 16 Sudeste 0 -- -- 72
2017-11-19 14:00:00 18 9 Este 18 Sudeste 0 -- -- 73
2017-11-19 13:00:00 17.8 10 Este 20 Este 0 -- -- 72
2017-11-19 12:00:00 17.6 11 Este 22 Este 0 -- -- 72
2017-11-19 11:00:00 17.2 13 Este 19 Este 0 -- -- 73
2017-11-19 10:00:00 17 6 Este 13 Sudeste 0 -- -- 72
2017-11-19 09:00:00 14.5 3 Norte 6 Nordeste 0 -- -- 81
2017-11-19 08:00:00 12.6 3 Noroeste 7 Noroeste 0 -- -- 87
2017-11-19 07:00:00 13.2 3 Norte 7 Noroeste 0 -- -- 86
2017-11-19 06:00:00 13.3 4 Noroeste 8 Noroeste 0 -- -- 87
2017-11-19 05:00:00 13.3 0 Calma 6 Noroeste 0 -- -- 89
2017-11-19 04:00:00 13.1 2 Noroeste 9 Noroeste 0 -- -- 88
2017-11-19 03:00:00 13.4 0 Calma 3 Oeste 0 -- -- 92
2017-11-19 02:00:00 12.9 0 Calma 4 Sudoeste 0 -- -- 93
2017-11-19 01:00:00 12.4 0 Calma 6 Oeste 0 -- -- 93
2017-11-19 00:00:00 12.5 0 Calma 4 Sudeste 0 -- -- 94
2017-11-18 23:00:00 12.3 2 Sur 5 Sudoeste 0 -- -- 92
2017-11-18 22:00:00 12.3 0 Calma 4 Sur 0 -- -- 90
2017-11-18 21:00:00 12.5 2 Sur 5 Sur 0 -- -- 91
2017-11-18 20:00:00 12.7 2 Sudoeste 4 Sur 0 -- -- 91
2017-11-18 19:00:00 12.7 0 Calma 4 Oeste 0 -- -- 88
2017-11-18 18:00:00 13.2 0 Calma 4 Sur 0 -- -- 83
2017-11-18 17:00:00 14.3 2 Sur 6 Sur 0 -- -- 79
2017-11-18 16:00:00 17.3 4 Sudeste 12 Sudeste 0 -- -- 73
2017-11-18 15:00:00 17.5 8 Sudeste 15 Sudeste 0 -- -- 72
2017-11-18 14:00:00 17.4 9 Sudeste 15 Sudeste 0 -- -- 72
2017-11-18 13:00:00 17.7 9 Sudeste 13 Sudeste 0 -- -- 67
2017-11-18 12:00:00 17.7 8 Sudeste 14 Sudeste 0 -- -- 69
2017-11-18 11:00:00 17.7 6 Este 10 Sudeste 0 -- -- 65
2017-11-18 10:00:00 17.3 3 Este 6 Nordeste 0 -- -- 63
2017-11-18 09:00:00 13.9 0 Calma 4 Sudoeste 0 -- -- 74
2017-11-18 08:00:00 11.7 2 Sudoeste 7 Oeste 0 -- -- 78
2017-11-18 07:00:00 12.2 5 Oeste 8 Oeste 0 -- -- 75
2017-11-18 06:00:00 11.7 2 Oeste 5 Sudoeste 0 -- -- 84
2017-11-18 05:00:00 11.4 0 Calma 4 Sudoeste 0 -- -- 86
2017-11-18 04:00:00 11.7 3 Oeste 5 Sudoeste 0 -- -- 90
2017-11-18 03:00:00 11.5 0 Calma 6 Sur 0 -- -- 90
2017-11-18 02:00:00 11.6 0 Calma 3 Sur 0 -- -- 90
2017-11-18 01:00:00 11.7 0 Calma 4 Sudoeste 0 -- -- 88
2017-11-18 00:00:00 11.8 0 Calma 3 Sudoeste 0 -- -- 82
2017-11-17 23:00:00 11.8 0 Calma 4 Sudoeste 0 -- -- 82
2017-11-17 22:00:00 12 0 Calma 6 Oeste 0 -- -- 81
2017-11-17 21:00:00 12.5 2 Oeste 4 Sudoeste 0 -- -- 79
2017-11-17 20:00:00 12.2 0 Calma 3 Sudoeste 0 -- -- 82
2017-11-17 19:00:00 12.2 0 Calma 4 Oeste 0 -- -- 82
2017-11-17 18:00:00 13 2 Oeste 7 Sudeste 0 -- -- 81
2017-11-17 17:00:00 14.2 6 Sur 12 Sudeste 0 -- -- 77
2017-11-17 16:00:00 16.2 9 Sudeste 14 Sudeste 0 -- -- 71
2017-11-17 15:00:00 16.8 10 Sudeste 15 Sudeste 0 -- -- 71
2017-11-17 14:00:00 16.5 9 Sudeste 16 Sudeste 0 -- -- 71
2017-11-17 13:00:00 17.1 8 Sudeste 16 Este 0 -- -- 69
2017-11-17 12:00:00 17.2 9 Sudeste 15 Sudeste 0 -- -- 68
2017-11-17 11:00:00 17.1 7 Este 11 Sudeste 0 -- -- 72
2017-11-17 10:00:00 16.5 3 Nordeste 5 Norte 0 -- -- 73
2017-11-17 09:00:00 13.7 3 Oeste 4 Oeste 0 -- -- 82
2017-11-17 08:00:00 11.4 2 Oeste 5 Oeste 0 -- -- 88
2017-11-17 07:00:00 11.4 0 Calma 4 Sudoeste 0 -- -- 87
2017-11-17 06:00:00 11.1 2 Sudoeste 4 Sudoeste 0 -- -- 84
2017-11-17 05:00:00 11.4 2 Sudoeste 6 Oeste 0 -- -- 81
2017-11-17 04:00:00 11.9 3 Oeste 6 Sudoeste 0 -- -- 76
2017-11-17 03:00:00 11.8 5 Oeste 6 Oeste 0 -- -- 84
2017-11-17 02:00:00 11.7 0 Calma 4 Sur 0 -- -- 84
2017-11-17 01:00:00 12.2 0 Calma 5 Oeste 0 -- -- 82
2017-11-17 00:00:00 12.2 3 Oeste 5 Sudoeste 0 -- -- 77